Time;durP1;ratioP1;P1;durP2;ratioP2;P2;SDS_P1;SDS_P2;PMS_P1;PMS_P2;Temp;Humidity;BMP_temperature;BMP_pressure;BME280_temperature;BME280_humidity;BME280_pressure;Samples;Min_cycle;Max_cycle;Signal;HPM_P1;HPM_P2
2023/12/31 00:01:55;;;;;;;16.58;9.98;;;;;;;-0.62;100.00;96302.06;5019672;28;20049;-71
2023/12/31 00:04:21;;;;;;;17.70;10.43;;;;;;;-1.06;100.00;96306.25;5014667;28;20133;-71
2023/12/31 00:06:46;;;;;;;16.55;9.98;;;;;;;-0.98;100.00;96302.06;5019506;28;20080;-72
2023/12/31 00:09:11;;;;;;;16.70;9.68;;;;;;;-0.86;100.00;96302.34;5009119;28;20508;-71
2023/12/31 00:11:37;;;;;;;16.00;9.98;;;;;;;-0.79;100.00;96299.25;5020277;28;20056;-72
2023/12/31 00:14:02;;;;;;;15.65;10.32;;;;;;;-0.79;100.00;96297.34;5012953;28;20079;-71
2023/12/31 00:16:27;;;;;;;17.23;10.43;;;;;;;-0.77;100.00;96297.84;4996319;28;20064;-71
2023/12/31 00:18:53;;;;;;;16.25;9.80;;;;;;;-0.71;100.00;96281.59;5019025;28;20504;-71
2023/12/31 00:21:19;;;;;;;15.77;10.30;;;;;;;-0.65;100.00;96277.66;5015305;28;20041;-72
2023/12/31 00:23:44;;;;;;;17.33;9.80;;;;;;;-0.53;100.00;96279.81;5035577;28;20068;-72
2023/12/31 00:26:10;;;;;;;17.20;10.60;;;;;;;-0.67;100.00;96272.59;5015261;28;20107;-71
2023/12/31 00:28:35;;;;;;;17.15;10.57;;;;;;;-0.66;100.00;96271.50;5034949;28;20041;-71
2023/12/31 00:31:00;;;;;;;14.73;9.55;;;;;;;-0.66;100.00;96276.88;5019883;28;20459;-71
2023/12/31 00:33:26;;;;;;;17.75;10.13;;;;;;;-0.71;100.00;96271.63;5018241;28;20049;-71
2023/12/31 00:35:51;;;;;;;18.77;10.93;;;;;;;-0.76;100.00;96258.28;5034567;28;20115;-71
2023/12/31 00:38:17;;;;;;;17.60;10.95;;;;;;;-0.86;100.00;96258.53;5028971;28;20041;-71
2023/12/31 00:40:42;;;;;;;16.65;11.25;;;;;;;-0.99;100.00;96257.44;5035073;28;20060;-71
2023/12/31 00:43:07;;;;;;;16.48;11.15;;;;;;;-1.25;100.00;96244.56;5012986;28;20136;-71
2023/12/31 00:45:33;;;;;;;18.55;11.65;;;;;;;-1.29;100.00;96243.59;5019498;28;20103;-72
2023/12/31 00:47:58;;;;;;;18.35;11.63;;;;;;;-1.31;100.00;96245.00;5016509;28;20041;-71
2023/12/31 00:50:23;;;;;;;20.30;11.85;;;;;;;-1.18;100.00;96253.00;5016313;28;20068;-73
2023/12/31 00:52:49;;;;;;;17.08;10.63;;;;;;;-1.19;100.00;96247.94;5027697;28;20049;-72
2023/12/31 00:55:14;;;;;;;15.95;10.35;;;;;;;-1.22;100.00;96246.66;5000451;28;20124;-71
2023/12/31 00:57:39;;;;;;;18.98;10.95;;;;;;;-1.19;100.00;96239.88;5020300;28;20083;-71
2023/12/31 01:00:05;;;;;;;16.30;9.77;;;;;;;-1.25;100.00;96246.47;4987583;28;20120;-72
2023/12/31 01:02:31;;;;;;;17.63;10.40;;;;;;;-1.25;100.00;96239.19;5003796;28;20084;-71
2023/12/31 01:04:57;;;;;;;18.27;11.05;;;;;;;-1.27;100.00;96232.53;5034153;28;20080;-71
2023/12/31 01:07:22;;;;;;;16.50;9.48;;;;;;;-1.09;100.00;96230.81;5031907;28;20148;-72
2023/12/31 01:09:48;;;;;;;16.63;8.77;;;;;;;-0.96;100.00;96219.22;5025978;28;20136;-71
2023/12/31 01:12:14;;;;;;;15.63;10.38;;;;;;;-0.98;100.00;96222.19;5014661;28;20042;-71
2023/12/31 01:14:39;;;;;;;15.02;9.05;;;;;;;-1.02;100.00;96205.09;5019325;28;20044;-70
2023/12/31 01:17:05;;;;;;;12.82;9.38;;;;;;;-1.05;100.00;96208.38;5004396;28;20052;-71
2023/12/31 01:19:30;;;;;;;16.58;10.10;;;;;;;-1.06;100.00;96211.38;5019712;28;20045;-71
2023/12/31 01:21:55;;;;;;;13.98;9.43;;;;;;;-1.06;100.00;96214.88;5036812;28;20034;-72
2023/12/31 01:24:21;;;;;;;18.42;9.60;;;;;;;-1.02;100.00;96218.53;5031892;28;20084;-70
2023/12/31 01:26:46;;;;;;;16.45;9.93;;;;;;;-1.16;100.00;96209.72;5019495;28;20049;-71
2023/12/31 01:29:12;;;;;;;19.48;9.15;;;;;;;-1.14;100.00;96204.84;5014574;28;20168;-72
2023/12/31 01:31:37;;;;;;;13.38;8.90;;;;;;;-1.14;100.00;96201.34;5033698;28;20518;-70
2023/12/31 01:34:03;;;;;;;15.07;8.90;;;;;;;-1.16;100.00;96193.59;5018444;28;20053;-71
2023/12/31 01:36:28;;;;;;;17.00;8.70;;;;;;;-1.20;100.00;96192.63;5036440;28;20064;-72
2023/12/31 01:38:54;;;;;;;12.05;8.70;;;;;;;-1.23;100.00;96190.53;5022609;28;20073;-71
2023/12/31 01:41:19;;;;;;;12.48;9.10;;;;;;;-1.23;100.00;96188.63;5018227;28;20037;-72
2023/12/31 01:43:47;;;;;;;14.85;9.50;;;;;;;-1.20;100.00;96182.66;5026133;28;20049;-72
2023/12/31 01:46:27;;;;;;;17.52;9.88;;;;;;;-1.25;100.00;96179.28;5018631;28;20041;-71
2023/12/31 01:48:54;;;;;;;14.38;9.65;;;;;;;-1.38;100.00;96173.66;5013199;28;20053;-71
2023/12/31 01:51:20;;;;;;;12.77;8.27;;;;;;;-1.47;100.00;96162.03;5032087;28;20045;-71
2023/12/31 01:53:45;;;;;;;14.15;9.00;;;;;;;-1.47;100.00;96164.72;5022636;28;20508;-72
2023/12/31 01:56:11;;;;;;;16.40;9.07;;;;;;;-1.42;100.00;96167.28;5017836;28;20129;-69
2023/12/31 01:58:37;;;;;;;14.52;9.40;;;;;;;-1.33;100.00;96161.19;5022995;28;20057;-71
2023/12/31 02:01:04;;;;;;;14.00;9.07;;;;;;;-1.33;100.00;96151.25;5034988;28;20054;-73
2023/12/31 02:03:30;;;;;;;14.50;9.27;;;;;;;-1.36;100.00;96155.31;5021996;28;20042;-71
2023/12/31 02:05:56;;;;;;;18.02;10.02;;;;;;;-1.36;100.00;96146.47;5014841;28;20049;-72
2023/12/31 02:08:23;;;;;;;17.83;8.65;;;;;;;-1.31;100.00;96138.31;5010604;28;20053;-72
2023/12/31 02:10:50;;;;;;;12.13;9.10;;;;;;;-1.31;100.00;96134.84;5022371;28;20045;-72
2023/12/31 02:13:16;;;;;;;14.90;9.15;;;;;;;-1.33;100.00;96134.31;5017913;28;20049;-71
2023/12/31 02:15:41;;;;;;;12.82;9.05;;;;;;;-1.36;100.00;96131.16;5024740;28;20042;-71
2023/12/31 02:18:07;;;;;;;15.75;9.95;;;;;;;-1.37;100.00;96115.31;5006193;28;20045;-70
2023/12/31 02:20:32;;;;;;;15.73;8.68;;;;;;;-1.39;100.00;96109.47;5027814;28;20042;-70
2023/12/31 02:22:58;;;;;;;14.35;8.93;;;;;;;-1.39;100.00;96112.16;5037271;28;20399;-72
2023/12/31 02:25:25;;;;;;;14.90;9.38;;;;;;;-1.45;100.00;96113.38;5000339;28;20426;-71
2023/12/31 02:27:51;;;;;;;15.55;9.05;;;;;;;-1.48;100.00;96114.75;5022510;28;20053;-70
2023/12/31 02:30:17;;;;;;;13.07;8.95;;;;;;;-1.51;100.00;96107.34;5016422;28;20092;-71
2023/12/31 02:32:42;;;;;;;17.92;9.48;;;;;;;-1.61;100.00;96097.59;5021802;28;20049;-71
2023/12/31 02:35:08;;;;;;;16.42;9.90;;;;;;;-1.68;100.00;96097.22;5017234;28;20038;-72
2023/12/31 02:37:33;;;;;;;17.25;9.45;;;;;;;-1.71;100.00;96091.66;5027833;28;20136;-71
2023/12/31 02:39:58;;;;;;;17.15;9.93;;;;;;;-1.77;100.00;96082.94;5021783;28;20080;-71
2023/12/31 02:42:24;;;;;;;13.75;9.13;;;;;;;-1.77;100.00;96077.56;5018621;28;20038;-70
2023/12/31 02:44:49;;;;;;;16.83;10.35;;;;;;;-1.73;100.00;96063.25;5021050;28;20045;-71
2023/12/31 02:47:15;;;;;;;14.80;8.98;;;;;;;-1.74;100.00;96063.53;5016991;28;20446;-71
2023/12/31 02:49:40;;;;;;;14.20;9.27;;;;;;;-1.71;100.00;96049.50;5017931;28;20076;-71
2023/12/31 02:52:06;;;;;;;13.98;9.45;;;;;;;-1.95;100.00;96039.81;5031748;28;20051;-71
2023/12/31 02:54:31;;;;;;;13.27;9.43;;;;;;;-2.01;100.00;96030.28;5025977;28;20081;-71
2023/12/31 02:56:57;;;;;;;16.05;9.15;;;;;;;-1.71;100.00;96021.84;5023127;28;20057;-72
2023/12/31 02:59:22;;;;;;;16.90;9.82;;;;;;;-1.65;100.00;96015.28;5016390;28;20554;-71
2023/12/31 03:01:49;;;;;;;15.98;9.77;;;;;;;-1.77;100.00;96015.81;5021707;28;20046;-71
2023/12/31 03:04:14;;;;;;;19.70;12.65;;;;;;;-1.96;100.00;96006.03;5017230;28;20069;-72
2023/12/31 03:06:39;;;;;;;18.17;9.73;;;;;;;-2.19;100.00;96015.13;5020103;28;20061;-71
2023/12/31 03:09:06;;;;;;;20.05;10.77;;;;;;;-2.22;100.00;96005.00;5020624;28;20069;-71
2023/12/31 03:11:33;;;;;;;18.10;10.13;;;;;;;-2.23;100.00;96000.72;5040438;28;20041;-70
2023/12/31 03:13:58;;;;;;;17.70;10.45;;;;;;;-2.21;100.00;95996.66;5021657;28;20063;-70
2023/12/31 03:16:26;;;;;;;14.85;9.90;;;;;;;-2.13;100.00;95992.47;5016663;28;20778;-69
2023/12/31 03:18:53;;;;;;;14.15;9.75;;;;;;;-2.03;100.00;95986.09;5013557;28;20042;-70
2023/12/31 03:21:18;;;;;;;17.50;10.80;;;;;;;-2.09;100.00;95982.69;5010210;28;20053;-71
2023/12/31 03:23:44;;;;;;;16.23;10.77;;;;;;;-2.18;100.00;95979.97;5010821;28;20046;-71
2023/12/31 03:26:09;;;;;;;15.27;9.65;;;;;;;-2.17;100.00;95972.69;5008896;28;20045;-70
2023/12/31 03:28:36;;;;;;;14.30;9.70;;;;;;;-2.07;100.00;95977.03;5036932;28;20053;-70
2023/12/31 03:31:03;;;;;;;16.15;9.60;;;;;;;-1.98;100.00;95959.91;5030692;28;20041;-71
2023/12/31 03:33:29;;;;;;;17.40;10.20;;;;;;;-2.15;100.00;95959.78;5043538;28;20049;-70
2023/12/31 03:35:54;;;;;;;15.43;9.75;;;;;;;-2.12;100.00;95967.22;5027995;28;20107;-70
2023/12/31 03:38:20;;;;;;;16.20;10.10;;;;;;;-1.85;100.00;95962.88;5015728;28;20038;-70
2023/12/31 03:40:45;;;;;;;13.30;8.23;;;;;;;-1.76;100.00;95966.41;5019971;28;20119;-71
2023/12/31 03:43:10;;;;;;;15.35;9.35;;;;;;;-1.75;100.00;95971.47;5015218;28;20060;-72
2023/12/31 03:45:36;;;;;;;15.35;8.57;;;;;;;-1.75;100.00;95963.41;5035319;28;20466;-70
2023/12/31 03:48:01;;;;;;;14.40;8.63;;;;;;;-1.71;100.00;95954.72;5015717;28;20122;-72
2023/12/31 03:50:27;;;;;;;12.75;8.00;;;;;;;-1.67;100.00;95955.72;5013454;28;20045;-71
2023/12/31 03:52:52;;;;;;;13.57;8.90;;;;;;;-1.91;100.00;95946.06;5019909;28;20045;-71
2023/12/31 03:55:17;;;;;;;10.50;7.88;;;;;;;-1.96;100.00;95938.94;5014962;28;20056;-72
2023/12/31 03:57:43;;;;;;;12.40;8.50;;;;;;;-1.88;100.00;95939.31;5005361;28;20134;-72
2023/12/31 04:00:10;;;;;;;13.32;8.10;;;;;;;-1.64;100.00;95936.28;5030297;28;20519;-71
2023/12/31 04:02:35;;;;;;;14.40;8.75;;;;;;;-1.63;100.00;95929.84;5021518;28;20060;-71
2023/12/31 04:05:02;;;;;;;14.25;8.27;;;;;;;-1.66;100.00;95923.16;5022504;28;20049;-71
2023/12/31 04:07:28;;;;;;;11.65;7.93;;;;;;;-1.58;100.00;95918.97;5026478;28;20046;-71
2023/12/31 04:09:53;;;;;;;14.75;7.65;;;;;;;-1.52;100.00;95912.38;5034288;28;20107;-71
2023/12/31 04:12:19;;;;;;;11.70;7.72;;;;;;;-1.51;100.00;95903.22;5021612;28;20049;-71
2023/12/31 04:14:46;;;;;;;10.38;7.15;;;;;;;-1.56;100.00;95908.72;5020561;28;20049;-71
2023/12/31 04:17:12;;;;;;;12.02;7.68;;;;;;;-1.67;100.00;95892.06;5014919;28;20052;-71
2023/12/31 04:19:38;;;;;;;11.95;7.65;;;;;;;-1.53;100.00;95894.69;5022871;28;20049;-72
2023/12/31 04:22:03;;;;;;;11.88;7.38;;;;;;;-1.50;100.00;95887.88;5020973;28;20428;-74
2023/12/31 04:24:29;;;;;;;13.23;7.97;;;;;;;-1.53;100.00;95875.88;5023880;28;20046;-74
2023/12/31 04:26:56;;;;;;;10.50;6.78;;;;;;;-1.47;100.00;95877.31;5030157;28;20623;-70
2023/12/31 04:29:21;;;;;;;10.90;7.32;;;;;;;-1.57;100.00;95880.25;5014904;28;20038;-70
2023/12/31 04:31:50;;;;;;;13.13;7.47;;;;;;;-1.53;100.00;95862.44;5018018;28;20041;-71
2023/12/31 04:34:15;;;;;;;11.75;7.63;;;;;;;-1.59;100.00;95859.09;5014460;28;20153;-71
2023/12/31 04:36:44;;;;;;;10.95;7.05;;;;;;;-1.58;100.00;95847.25;5019114;28;20136;-71
2023/12/31 04:39:11;;;;;;;12.68;7.10;;;;;;;-1.62;100.00;95840.09;5029598;28;20041;-71
2023/12/31 04:41:36;;;;;;;10.77;7.28;;;;;;;-1.67;100.00;95835.69;5024188;28;20631;-70
2023/12/31 04:44:02;;;;;;;13.07;8.50;;;;;;;-1.58;100.00;95833.03;5017159;28;20049;-69
2023/12/31 04:46:27;;;;;;;11.70;7.53;;;;;;;-1.52;100.00;95829.09;5015226;28;20500;-71
2023/12/31 04:48:53;;;;;;;14.13;7.60;;;;;;;-1.59;100.00;95832.22;5015153;28;20049;-71
2023/12/31 04:51:25;;;;;;;13.20;8.07;;;;;;;-1.68;100.00;95817.19;5014065;28;20046;-72
2023/12/31 04:53:52;;;;;;;18.00;7.82;;;;;;;-1.85;100.00;95807.19;5018549;28;20052;-72
2023/12/31 04:56:19;;;;;;;12.40;7.90;;;;;;;-1.86;100.00;95803.69;5022015;28;20120;-71
2023/12/31 04:58:44;;;;;;;12.90;7.32;;;;;;;-1.69;100.00;95804.84;5015199;28;20053;-72
2023/12/31 05:01:10;;;;;;;12.00;7.53;;;;;;;-1.68;100.00;95801.09;5015825;28;20056;-72
2023/12/31 05:03:35;;;;;;;10.70;7.35;;;;;;;-1.77;100.00;95799.13;5020309;28;20416;-72
2023/12/31 05:06:00;;;;;;;11.57;7.50;;;;;;;-1.71;100.00;95791.78;5027713;28;20042;-71
2023/12/31 05:08:26;;;;;;;10.57;6.78;;;;;;;-1.67;100.00;95779.31;5018057;28;20042;-71
2023/12/31 05:10:51;;;;;;;16.77;7.90;;;;;;;-1.59;100.00;95783.09;5023141;28;20447;-71
2023/12/31 05:13:17;;;;;;;9.93;6.88;;;;;;;-1.60;100.00;95778.84;5018142;28;20064;-71
2023/12/31 05:15:42;;;;;;;10.95;6.95;;;;;;;-1.83;100.00;95780.81;5040575;28;20507;-71
2023/12/31 05:18:08;;;;;;;14.73;7.80;;;;;;;-1.87;100.00;95785.19;5022352;28;20507;-71
2023/12/31 05:20:33;;;;;;;11.38;6.55;;;;;;;-1.81;100.00;95773.25;5016640;28;20050;-71
2023/12/31 05:22:58;;;;;;;13.18;7.75;;;;;;;-1.80;100.00;95781.00;5032713;28;20045;-74
2023/12/31 05:25:24;;;;;;;9.55;6.75;;;;;;;-1.65;100.00;95779.78;5036892;28;20045;-70
2023/12/31 05:27:49;;;;;;;11.00;7.15;;;;;;;-1.74;100.00;95779.75;5023579;28;20133;-72
2023/12/31 05:30:15;;;;;;;8.52;6.85;;;;;;;-1.66;100.00;95767.44;5018880;28;20053;-71
2023/12/31 05:32:40;;;;;;;10.95;7.25;;;;;;;-1.59;100.00;95764.31;5023217;28;20411;-71
2023/12/31 05:35:06;;;;;;;11.18;7.45;;;;;;;-1.45;100.00;95764.22;5017686;28;20385;-70
2023/12/31 05:37:32;;;;;;;10.15;7.07;;;;;;;-1.45;100.00;95762.31;5038576;28;20641;-71
2023/12/31 05:39:58;;;;;;;12.40;6.85;;;;;;;-1.46;100.00;95759.94;5006988;28;20041;-71
2023/12/31 05:42:23;;;;;;;12.15;7.22;;;;;;;-1.49;100.00;95763.25;5025762;28;20117;-71
2023/12/31 05:44:48;;;;;;;10.45;6.72;;;;;;;-1.57;100.00;95754.84;5027130;28;20097;-70
2023/12/31 05:47:14;;;;;;;13.27;7.28;;;;;;;-1.59;100.00;95758.94;5014671;28;20050;-71
2023/12/31 05:49:39;;;;;;;11.25;6.82;;;;;;;-1.71;100.00;95756.88;5034948;28;20042;-73
2023/12/31 05:52:05;;;;;;;11.70;7.47;;;;;;;-1.78;100.00;95762.69;5018954;28;20045;-70
2023/12/31 05:54:31;;;;;;;11.32;7.28;;;;;;;-1.69;100.00;95754.66;5030185;28;20049;-69
2023/12/31 05:56:56;;;;;;;10.82;6.97;;;;;;;-1.54;100.00;95754.22;5008702;28;20055;-71
2023/12/31 05:59:22;;;;;;;10.02;7.28;;;;;;;-1.43;100.00;95754.72;5003716;28;20525;-71
2023/12/31 06:01:48;;;;;;;10.55;6.95;;;;;;;-1.46;100.00;95750.00;5011366;28;20395;-70
2023/12/31 06:04:13;;;;;;;12.10;7.32;;;;;;;-1.48;100.00;95757.53;5018114;28;20041;-70
2023/12/31 06:06:39;;;;;;;11.10;7.13;;;;;;;-1.53;100.00;95749.66;5021347;28;20054;-70
2023/12/31 06:09:04;;;;;;;11.48;7.18;;;;;;;-1.57;100.00;95749.50;5016550;28;20051;-72
2023/12/31 06:11:29;;;;;;;9.27;6.63;;;;;;;-1.45;100.00;95751.56;5022502;28;20072;-71
2023/12/31 06:13:55;;;;;;;13.27;7.35;;;;;;;-1.35;100.00;95761.25;5022109;28;20492;-70
2023/12/31 06:16:21;;;;;;;10.20;7.30;;;;;;;-1.40;100.00;95756.78;5016645;28;20045;-70
2023/12/31 06:18:46;;;;;;;10.02;6.78;;;;;;;-1.69;100.00;95757.34;5022187;28;20045;-72
2023/12/31 06:21:11;;;;;;;11.02;7.43;;;;;;;-1.73;100.00;95759.84;5017238;28;20492;-70
2023/12/31 06:23:37;;;;;;;13.70;7.55;;;;;;;-1.66;100.00;95762.06;5022505;28;20034;-71
2023/12/31 06:26:02;;;;;;;10.98;7.90;;;;;;;-1.74;100.00;95773.59;5024754;28;20124;-71
2023/12/31 06:28:28;;;;;;;11.45;7.13;;;;;;;-1.67;100.00;95773.94;5037364;28;20060;-70
2023/12/31 06:30:53;;;;;;;11.00;7.60;;;;;;;-1.62;100.00;95776.47;5038084;28;20506;-71
2023/12/31 06:33:19;;;;;;;13.63;7.28;;;;;;;-1.52;100.00;95783.44;5021279;28;20054;-70
2023/12/31 06:35:44;;;;;;;9.60;6.88;;;;;;;-1.37;100.00;95788.41;5021658;28;20141;-71
2023/12/31 06:38:09;;;;;;;10.30;6.63;;;;;;;-1.41;100.00;95789.34;5008194;28;20056;-71
2023/12/31 06:40:35;;;;;;;12.52;7.65;;;;;;;-1.44;100.00;95793.44;5023117;28;20389;-69
2023/12/31 06:43:00;;;;;;;11.15;6.63;;;;;;;-1.57;100.00;95792.47;5015270;28;20069;-71
2023/12/31 06:45:25;;;;;;;12.15;7.35;;;;;;;-1.62;100.00;95789.09;5016515;28;20045;-71
2023/12/31 06:47:51;;;;;;;10.00;6.78;;;;;;;-1.62;100.00;95797.97;5018013;28;20042;-71
2023/12/31 06:50:16;;;;;;;10.63;7.38;;;;;;;-1.62;100.00;95806.03;5028676;28;20503;-71
2023/12/31 06:52:41;;;;;;;11.38;7.28;;;;;;;-1.47;100.00;95806.69;5015007;28;20115;-71
2023/12/31 06:55:10;;;;;;;9.40;7.28;;;;;;;-1.55;100.00;95814.41;5016018;28;20038;-71
2023/12/31 06:57:37;;;;;;;11.63;7.30;;;;;;;-1.28;100.00;95817.19;5019710;28;20124;-71
2023/12/31 07:00:03;;;;;;;14.35;7.93;;;;;;;-1.12;100.00;95821.00;5019453;28;20136;-72
2023/12/31 07:02:30;;;;;;;14.20;8.32;;;;;;;-1.08;100.00;95840.00;5022619;28;20048;-72
2023/12/31 07:04:55;;;;;;;11.20;8.10;;;;;;;-1.00;100.00;95848.06;5021481;28;20049;-71
2023/12/31 07:07:20;;;;;;;14.23;7.63;;;;;;;-0.89;100.00;95853.94;5015447;28;20140;-71
2023/12/31 07:09:46;;;;;;;13.57;8.70;;;;;;;-0.74;100.00;95860.00;5021518;28;20059;-71
2023/12/31 07:12:11;;;;;;;17.85;10.00;;;;;;;-0.67;100.00;95869.16;5015738;28;20053;-71
2023/12/31 07:14:36;;;;;;;17.58;9.70;;;;;;;-0.41;100.00;95879.19;5036521;28;20052;-70
2023/12/31 07:17:02;;;;;;;17.58;9.57;;;;;;;-0.47;100.00;95889.31;5020112;28;20396;-71
2023/12/31 07:19:27;;;;;;;14.82;8.73;;;;;;;-0.62;100.00;95898.59;5016483;28;20049;-70
2023/12/31 07:21:53;;;;;;;16.70;10.18;;;;;;;-0.42;100.00;95910.66;5020290;28;20463;-70
2023/12/31 07:24:18;;;;;;;14.40;9.88;;;;;;;-0.37;100.00;95917.78;5031304;28;20113;-70
2023/12/31 07:26:43;;;;;;;13.77;9.68;;;;;;;-0.22;100.00;95924.59;5018805;28;20045;-69
2023/12/31 07:29:09;;;;;;;15.95;10.50;;;;;;;-0.10;100.00;95924.78;5016425;28;20045;-70
2023/12/31 07:31:36;;;;;;;13.93;9.82;;;;;;;-0.13;100.00;95925.41;5020772;28;20450;-70
2023/12/31 07:34:03;;;;;;;16.67;10.73;;;;;;;-0.02;100.00;95925.88;5030932;28;20034;-72
2023/12/31 07:36:28;;;;;;;17.75;10.85;;;;;;;0.10;100.00;95936.81;5023655;28;20042;-71
2023/12/31 07:38:54;;;;;;;18.50;11.25;;;;;;;0.22;100.00;95938.06;5025198;28;20150;-71
2023/12/31 07:41:19;;;;;;;18.20;11.13;;;;;;;0.24;100.00;95941.25;5017999;28;20038;-70
2023/12/31 07:43:45;;;;;;;16.88;10.93;;;;;;;0.31;100.00;95939.66;5021896;28;20160;-70
2023/12/31 07:46:10;;;;;;;17.67;9.40;;;;;;;0.29;100.00;95933.78;5016387;28;20194;-70
2023/12/31 07:48:37;;;;;;;19.77;10.18;;;;;;;0.33;100.00;95932.03;5016602;28;20037;-70
2023/12/31 07:51:03;;;;;;;16.42;10.70;;;;;;;0.41;100.00;95941.22;5018292;28;20048;-71
2023/12/31 07:53:31;;;;;;;16.38;10.68;;;;;;;0.37;100.00;95940.28;5016934;28;20045;-71
2023/12/31 07:55:56;;;;;;;15.27;10.45;;;;;;;0.37;100.00;95934.88;5025821;28;20383;-70
2023/12/31 07:58:24;;;;;;;19.88;12.35;;;;;;;0.13;100.00;95933.50;5015333;28;20058;-71
2023/12/31 08:00:50;;;;;;;17.83;11.77;;;;;;;0.09;100.00;95947.88;5035433;28;20099;-70
2023/12/31 08:03:15;;;;;;;20.50;12.43;;;;;;;0.01;100.00;95948.69;5015293;28;20053;-70
2023/12/31 08:05:41;;;;;;;20.80;12.77;;;;;;;0.14;100.00;95942.34;5018538;28;20129;-71
2023/12/31 08:08:09;;;;;;;23.77;12.98;;;;;;;0.43;100.00;95946.28;5012399;28;20038;-71
2023/12/31 08:10:35;;;;;;;20.15;12.90;;;;;;;0.49;100.00;95950.41;5019957;28;20121;-71
2023/12/31 08:13:01;;;;;;;20.48;12.23;;;;;;;0.37;100.00;95951.84;5021920;28;20041;-71
2023/12/31 08:15:26;;;;;;;18.65;11.50;;;;;;;0.41;100.00;95946.59;5014523;28;20046;-71
2023/12/31 08:17:51;;;;;;;19.00;12.98;;;;;;;0.50;100.00;95941.19;5020600;28;20038;-70
2023/12/31 08:20:17;;;;;;;23.70;12.90;;;;;;;0.80;100.00;95949.38;5016775;28;20518;-70
2023/12/31 08:22:42;;;;;;;20.38;13.00;;;;;;;0.83;100.00;95943.34;5020540;28;20038;-70
2023/12/31 08:25:07;;;;;;;22.33;13.02;;;;;;;1.00;100.00;95954.06;5015009;28;20045;-70
2023/12/31 08:27:33;;;;;;;19.67;13.35;;;;;;;0.99;100.00;95949.81;5019172;28;20118;-71
2023/12/31 08:29:58;;;;;;;18.77;12.30;;;;;;;0.97;100.00;95938.53;5019318;28;20084;-70
2023/12/31 08:32:28;;;;;;;19.98;12.35;;;;;;;0.88;100.00;95935.06;5014539;28;20045;-70
2023/12/31 08:34:54;;;;;;;22.17;13.32;;;;;;;0.76;100.00;95924.97;5019883;28;20497;-72
2023/12/31 08:37:19;;;;;;;22.95;13.63;;;;;;;0.89;100.00;95926.66;5014866;28;20095;-70
2023/12/31 08:39:45;;;;;;;24.00;15.27;;;;;;;0.90;100.00;95922.06;5034375;28;20061;-72
2023/12/31 08:42:10;;;;;;;23.77;14.85;;;;;;;1.11;100.00;95922.91;5015580;28;20103;-70
2023/12/31 08:44:35;;;;;;;24.13;14.48;;;;;;;1.22;100.00;95928.75;5036699;28;20100;-71
2023/12/31 08:47:01;;;;;;;24.52;13.88;;;;;;;1.37;100.00;95915.81;5035391;28;20053;-70
2023/12/31 08:49:29;;;;;;;22.52;13.80;;;;;;;1.24;100.00;95906.84;5014974;28;20041;-69
2023/12/31 08:51:55;;;;;;;18.55;12.10;;;;;;;0.89;100.00;95917.78;5018220;28;20033;-71
2023/12/31 08:54:20;;;;;;;21.02;14.05;;;;;;;1.19;100.00;95907.84;5014967;28;20140;-70
2023/12/31 08:56:46;;;;;;;23.27;13.85;;;;;;;1.51;100.00;95909.09;5017420;28;20152;-70
2023/12/31 08:59:11;;;;;;;20.70;12.95;;;;;;;1.69;100.00;95912.47;5015053;28;20408;-71
2023/12/31 09:01:36;;;;;;;18.55;13.65;;;;;;;1.77;100.00;95910.81;5019713;28;20049;-71
2023/12/31 09:04:02;;;;;;;29.52;20.25;;;;;;;1.95;100.00;95913.38;5020365;28;20037;-71
2023/12/31 09:06:29;;;;;;;24.15;16.25;;;;;;;2.14;100.00;95902.88;5016422;28;20076;-72
2023/12/31 09:08:54;;;;;;;20.20;13.35;;;;;;;2.31;100.00;95907.34;5019467;28;20128;-71
2023/12/31 09:11:21;;;;;;;26.55;18.13;;;;;;;2.22;100.00;95902.03;5016244;28;20169;-71
2023/12/31 09:13:47;;;;;;;22.77;12.38;;;;;;;1.62;100.00;95900.59;5019135;28;20037;-70
2023/12/31 09:16:12;;;;;;;19.15;11.98;;;;;;;1.65;100.00;95900.72;4995002;28;20039;-70
2023/12/31 09:18:38;;;;;;;23.98;14.20;;;;;;;1.51;100.00;95902.88;5019035;28;20041;-70
2023/12/31 09:21:03;;;;;;;30.67;15.80;;;;;;;1.61;100.00;95894.41;5015186;28;20128;-70
2023/12/31 09:23:29;;;;;;;31.42;16.42;;;;;;;1.33;100.00;95892.22;5019409;28;20148;-70
2023/12/31 09:25:55;;;;;;;22.13;13.70;;;;;;;1.52;100.00;95899.84;5021589;28;20626;-69
2023/12/31 09:28:20;;;;;;;21.73;13.35;;;;;;;1.58;100.00;95896.97;5013423;28;20064;-71
2023/12/31 09:30:45;;;;;;;22.35;13.65;;;;;;;1.32;100.00;95896.00;5019308;28;20052;-71
2023/12/31 09:33:11;;;;;;;22.23;13.60;;;;;;;1.61;100.00;95889.00;5014972;28;20397;-71
2023/12/31 09:35:37;;;;;;;22.13;13.43;;;;;;;1.46;100.00;95882.28;5019073;28;20132;-70
2023/12/31 09:38:02;;;;;;;24.52;14.45;;;;;;;1.44;100.00;95873.72;5018083;28;20132;-70
2023/12/31 09:40:28;;;;;;;22.67;14.90;;;;;;;1.30;100.00;95873.97;5016375;28;20052;-69
2023/12/31 09:42:54;;;;;;;21.83;14.15;;;;;;;1.54;100.00;95877.94;5011741;28;20037;-72
2023/12/31 09:45:23;;;;;;;21.38;13.73;;;;;;;1.46;100.00;95867.97;5015074;28;20038;-71
2023/12/31 09:47:49;;;;;;;20.85;12.68;;;;;;;1.71;100.00;95866.22;5005416;28;20053;-70
2023/12/31 09:50:19;;;;;;;15.20;11.15;;;;;;;2.29;100.00;95852.84;4995164;28;20053;-71
2023/12/31 09:52:46;;;;;;;19.67;12.10;;;;;;;2.77;100.00;95845.16;5030505;28;20598;-70
2023/12/31 09:55:13;;;;;;;17.67;11.43;;;;;;;3.09;100.00;95835.34;5018324;28;20041;-70
2023/12/31 09:57:42;;;;;;;20.63;12.65;;;;;;;2.97;100.00;95828.06;5023280;28;20042;-71
2023/12/31 10:00:09;;;;;;;17.95;11.60;;;;;;;3.04;100.00;95824.75;5021483;28;20048;-70
2023/12/31 10:02:34;;;;;;;16.45;10.85;;;;;;;2.05;100.00;95821.94;5031937;28;20593;-70
2023/12/31 10:05:00;;;;;;;19.23;12.57;;;;;;;2.02;100.00;95833.41;5030263;28;20049;-70
2023/12/31 10:07:26;;;;;;;20.92;12.93;;;;;;;2.13;100.00;95824.88;5027685;28;20049;-70
2023/12/31 10:09:54;;;;;;;18.83;11.63;;;;;;;2.53;100.00;95816.19;5022523;28;20540;-70
2023/12/31 10:12:20;;;;;;;19.15;10.55;;;;;;;3.19;100.00;95815.97;5020073;28;20123;-70
2023/12/31 10:14:46;;;;;;;16.67;11.38;;;;;;;3.73;100.00;95817.53;5018621;28;20042;-70
2023/12/31 10:17:11;;;;;;;16.88;11.30;;;;;;;3.94;100.00;95811.94;5029395;28;20049;-70
2023/12/31 10:19:38;;;;;;;18.30;12.10;;;;;;;4.30;100.00;95810.16;5022740;28;20519;-69
2023/12/31 10:22:05;;;;;;;29.75;17.50;;;;;;;4.15;100.00;95800.88;5007163;28;20113;-72
2023/12/31 10:24:31;;;;;;;21.55;13.90;;;;;;;4.32;100.00;95802.50;5028114;28;20512;-70
2023/12/31 10:27:00;;;;;;;30.02;17.90;;;;;;;4.52;100.00;95792.53;5021875;28;20493;-70
2023/12/31 10:29:25;;;;;;;19.33;11.25;;;;;;;4.56;100.00;95790.69;5016870;28;20046;-69
2023/12/31 10:31:53;;;;;;;13.38;9.60;;;;;;;4.45;100.00;95792.34;5023670;28;20041;-71
2023/12/31 10:34:18;;;;;;;13.57;9.23;;;;;;;4.71;100.00;95786.41;5024367;28;20041;-70
2023/12/31 10:36:45;;;;;;;13.45;8.73;;;;;;;4.85;100.00;95779.75;5028068;28;20072;-70
2023/12/31 10:39:28;;;;;;;14.40;9.50;;;;;;;5.03;100.00;95759.22;5018427;28;20506;-71
2023/12/31 10:42:05;;;;;;;12.52;8.77;;;;;;;5.39;100.00;95751.88;5023412;28;20037;-71
2023/12/31 10:44:35;;;;;;;14.50;9.07;;;;;;;5.74;100.00;95757.25;5021342;28;20483;-71
2023/12/31 10:47:09;;;;;;;16.83;10.27;;;;;;;5.82;100.00;95754.69;5022816;28;20065;-70
2023/12/31 10:49:39;;;;;;;12.85;9.40;;;;;;;6.12;100.00;95743.97;5015312;28;20714;-71
2023/12/31 10:52:05;;;;;;;13.38;9.70;;;;;;;6.21;100.00;95741.03;5022009;28;20040;-70
2023/12/31 10:54:42;;;;;;;17.65;10.13;;;;;;;6.35;100.00;95726.91;5021162;28;20057;-71
2023/12/31 10:57:09;;;;;;;16.85;10.73;;;;;;;6.43;100.00;95725.91;5017796;28;20088;-70
2023/12/31 10:59:36;;;;;;;18.20;10.85;;;;;;;6.68;100.00;95720.81;5021897;28;20039;-70
2023/12/31 11:02:04;;;;;;;19.05;11.65;;;;;;;6.60;100.00;95719.94;5037759;28;20053;-70
2023/12/31 11:04:30;;;;;;;17.15;10.95;;;;;;;6.93;100.00;95712.25;5018034;28;20052;-69
2023/12/31 11:06:56;;;;;;;15.55;9.80;;;;;;;7.00;100.00;95704.19;5021825;28;20049;-69
2023/12/31 11:09:22;;;;;;;15.65;10.82;;;;;;;6.95;100.00;95699.88;5036753;28;20056;-70
2023/12/31 11:11:50;;;;;;;17.35;11.05;;;;;;;6.84;100.00;95694.28;5029923;28;20051;-70